sensor_id;sensor_type;location;lat;lon;timestamp;P1;durP1;ratioP1;P2;durP2;ratioP2
2906;SDS011;1463;51.070;16.998;2023-03-21T00:00:41;26.73;;;14.45;;
2906;SDS011;1463;51.070;16.998;2023-03-21T00:03:09;22.25;;;13.75;;
2906;SDS011;1463;51.070;16.998;2023-03-21T00:05:38;30.17;;;14.88;;
2906;SDS011;1463;51.070;16.998;2023-03-21T00:08:08;22.30;;;13.50;;
2906;SDS011;1463;51.070;16.998;2023-03-21T00:10:35;35.55;;;15.35;;
2906;SDS011;1463;51.070;16.998;2023-03-21T00:13:03;27.25;;;15.10;;
2906;SDS011;1463;51.070;16.998;2023-03-21T00:15:30;32.08;;;16.20;;
2906;SDS011;1463;51.070;16.998;2023-03-21T00:17:57;28.58;;;16.15;;
2906;SDS011;1463;51.070;16.998;2023-03-21T00:20:28;25.90;;;16.05;;
2906;SDS011;1463;51.070;16.998;2023-03-21T00:22:58;26.88;;;14.65;;
2906;SDS011;1463;51.070;16.998;2023-03-21T00:25:29;28.73;;;14.38;;
2906;SDS011;1463;51.070;16.998;2023-03-21T00:27:57;28.48;;;16.83;;
2906;SDS011;1463;51.070;16.998;2023-03-21T00:30:24;26.95;;;15.77;;
2906;SDS011;1463;51.070;16.998;2023-03-21T00:32:52;29.80;;;15.45;;
2906;SDS011;1463;51.070;16.998;2023-03-21T00:35:19;28.63;;;15.82;;
2906;SDS011;1463;51.070;16.998;2023-03-21T00:37:47;30.35;;;15.98;;
2906;SDS011;1463;51.070;16.998;2023-03-21T00:40:14;25.20;;;14.75;;
2906;SDS011;1463;51.070;16.998;2023-03-21T00:42:43;28.30;;;15.20;;
2906;SDS011;1463;51.070;16.998;2023-03-21T00:45:11;31.75;;;15.00;;
2906;SDS011;1463;51.070;16.998;2023-03-21T00:47:39;31.05;;;14.68;;
2906;SDS011;1463;51.070;16.998;2023-03-21T00:50:08;30.85;;;15.80;;
2906;SDS011;1463;51.070;16.998;2023-03-21T00:52:37;25.95;;;14.93;;
2906;SDS011;1463;51.070;16.998;2023-03-21T00:55:05;28.95;;;15.80;;
2906;SDS011;1463;51.070;16.998;2023-03-21T00:57:33;26.15;;;14.80;;
2906;SDS011;1463;51.070;16.998;2023-03-21T01:00:02;26.27;;;15.65;;
2906;SDS011;1463;51.070;16.998;2023-03-21T01:02:32;20.95;;;13.38;;
2906;SDS011;1463;51.070;16.998;2023-03-21T01:04:59;24.60;;;14.70;;
2906;SDS011;1463;51.070;16.998;2023-03-21T01:07:26;25.48;;;13.85;;
2906;SDS011;1463;51.070;16.998;2023-03-21T01:09:54;31.33;;;14.13;;
2906;SDS011;1463;51.070;16.998;2023-03-21T01:12:21;20.23;;;12.55;;
2906;SDS011;1463;51.070;16.998;2023-03-21T01:14:48;24.35;;;14.10;;
2906;SDS011;1463;51.070;16.998;2023-03-21T01:17:17;31.17;;;14.32;;
2906;SDS011;1463;51.070;16.998;2023-03-21T01:19:46;25.90;;;13.23;;
2906;SDS011;1463;51.070;16.998;2023-03-21T01:22:14;24.88;;;12.98;;
2906;SDS011;1463;51.070;16.998;2023-03-21T01:24:41;25.33;;;14.27;;
2906;SDS011;1463;51.070;16.998;2023-03-21T01:27:08;25.30;;;13.48;;
2906;SDS011;1463;51.070;16.998;2023-03-21T01:29:36;16.63;;;9.48;;
2906;SDS011;1463;51.070;16.998;2023-03-21T01:32:03;22.10;;;11.27;;
2906;SDS011;1463;51.070;16.998;2023-03-21T01:34:32;17.98;;;11.25;;
2906;SDS011;1463;51.070;16.998;2023-03-21T01:37:00;23.98;;;11.48;;
2906;SDS011;1463;51.070;16.998;2023-03-21T01:39:27;17.70;;;10.63;;
2906;SDS011;1463;51.070;16.998;2023-03-21T01:41:57;21.83;;;12.25;;
2906;SDS011;1463;51.070;16.998;2023-03-21T01:44:25;19.35;;;10.10;;
2906;SDS011;1463;51.070;16.998;2023-03-21T01:46:52;31.60;;;13.05;;
2906;SDS011;1463;51.070;16.998;2023-03-21T01:49:21;24.48;;;13.27;;
2906;SDS011;1463;51.070;16.998;2023-03-21T01:51:54;21.80;;;12.27;;
2906;SDS011;1463;51.070;16.998;2023-03-21T01:54:26;24.00;;;11.80;;
2906;SDS011;1463;51.070;16.998;2023-03-21T01:56:57;16.77;;;10.20;;
2906;SDS011;1463;51.070;16.998;2023-03-21T01:59:30;18.15;;;11.10;;
2906;SDS011;1463;51.070;16.998;2023-03-21T02:02:05;22.27;;;10.85;;
2906;SDS011;1463;51.070;16.998;2023-03-21T02:04:36;24.00;;;11.15;;
2906;SDS011;1463;51.070;16.998;2023-03-21T02:07:06;19.23;;;10.27;;
2906;SDS011;1463;51.070;16.998;2023-03-21T02:09:37;20.83;;;11.75;;
2906;SDS011;1463;51.070;16.998;2023-03-21T02:12:07;20.23;;;11.20;;
2906;SDS011;1463;51.070;16.998;2023-03-21T02:14:35;19.27;;;10.73;;
2906;SDS011;1463;51.070;16.998;2023-03-21T02:17:06;22.17;;;10.85;;
2906;SDS011;1463;51.070;16.998;2023-03-21T02:26:13;20.08;;;11.07;;
2906;SDS011;1463;51.070;16.998;2023-03-21T02:29:06;23.20;;;10.75;;
2906;SDS011;1463;51.070;16.998;2023-03-21T02:31:46;20.88;;;10.90;;
2906;SDS011;1463;51.070;16.998;2023-03-21T02:34:31;21.15;;;12.40;;
2906;SDS011;1463;51.070;16.998;2023-03-21T02:37:22;22.88;;;10.93;;
2906;SDS011;1463;51.070;16.998;2023-03-21T02:39:54;27.35;;;12.10;;
2906;SDS011;1463;51.070;16.998;2023-03-21T02:42:33;21.52;;;12.32;;
2906;SDS011;1463;51.070;16.998;2023-03-21T02:45:10;21.23;;;10.32;;
2906;SDS011;1463;51.070;16.998;2023-03-21T02:47:43;24.70;;;12.07;;
2906;SDS011;1463;51.070;16.998;2023-03-21T02:50:14;21.42;;;12.52;;
2906;SDS011;1463;51.070;16.998;2023-03-21T02:52:46;27.13;;;13.10;;
2906;SDS011;1463;51.070;16.998;2023-03-21T02:55:16;32.63;;;13.32;;
2906;SDS011;1463;51.070;16.998;2023-03-21T02:57:48;29.75;;;13.10;;
2906;SDS011;1463;51.070;16.998;2023-03-21T03:00:19;24.35;;;13.48;;
2906;SDS011;1463;51.070;16.998;2023-03-21T03:02:48;20.70;;;11.95;;
2906;SDS011;1463;51.070;16.998;2023-03-21T03:05:19;22.95;;;12.00;;
2906;SDS011;1463;51.070;16.998;2023-03-21T03:07:52;22.15;;;12.55;;
2906;SDS011;1463;51.070;16.998;2023-03-21T03:10:31;21.95;;;12.27;;
2906;SDS011;1463;51.070;16.998;2023-03-21T03:13:12;22.20;;;12.05;;
2906;SDS011;1463;51.070;16.998;2023-03-21T03:15:49;21.20;;;11.32;;
2906;SDS011;1463;51.070;16.998;2023-03-21T03:18:28;22.55;;;11.95;;
2906;SDS011;1463;51.070;16.998;2023-03-21T03:21:07;28.13;;;12.07;;
2906;SDS011;1463;51.070;16.998;2023-03-21T03:23:41;22.10;;;12.80;;
2906;SDS011;1463;51.070;16.998;2023-03-21T03:26:12;26.33;;;12.85;;
2906;SDS011;1463;51.070;16.998;2023-03-21T03:28:44;22.25;;;11.18;;
2906;SDS011;1463;51.070;16.998;2023-03-21T03:31:15;22.10;;;12.57;;
2906;SDS011;1463;51.070;16.998;2023-03-21T03:33:50;21.02;;;10.07;;
2906;SDS011;1463;51.070;16.998;2023-03-21T03:36:20;19.70;;;10.95;;
2906;SDS011;1463;51.070;16.998;2023-03-21T03:38:53;27.67;;;14.15;;
2906;SDS011;1463;51.070;16.998;2023-03-21T03:41:23;24.40;;;11.88;;
2906;SDS011;1463;51.070;16.998;2023-03-21T03:43:54;24.95;;;13.80;;
2906;SDS011;1463;51.070;16.998;2023-03-21T03:46:26;26.88;;;13.10;;
2906;SDS011;1463;51.070;16.998;2023-03-21T03:48:58;29.80;;;15.07;;
2906;SDS011;1463;51.070;16.998;2023-03-21T03:51:31;43.97;;;20.27;;
2906;SDS011;1463;51.070;16.998;2023-03-21T03:54:06;29.30;;;13.90;;
2906;SDS011;1463;51.070;16.998;2023-03-21T03:56:38;29.60;;;12.80;;
2906;SDS011;1463;51.070;16.998;2023-03-21T03:59:06;27.35;;;14.18;;
2906;SDS011;1463;51.070;16.998;2023-03-21T04:01:33;27.55;;;14.43;;
2906;SDS011;1463;51.070;16.998;2023-03-21T04:04:01;33.08;;;16.27;;
2906;SDS011;1463;51.070;16.998;2023-03-21T04:06:31;43.20;;;18.75;;
2906;SDS011;1463;51.070;16.998;2023-03-21T04:08:59;34.17;;;18.23;;
2906;SDS011;1463;51.070;16.998;2023-03-21T04:11:32;34.78;;;16.30;;
2906;SDS011;1463;51.070;16.998;2023-03-21T04:13:59;33.45;;;16.67;;
2906;SDS011;1463;51.070;16.998;2023-03-21T04:16:27;31.50;;;15.80;;
2906;SDS011;1463;51.070;16.998;2023-03-21T04:18:55;29.35;;;15.77;;
2906;SDS011;1463;51.070;16.998;2023-03-21T04:21:23;33.78;;;15.32;;
2906;SDS011;1463;51.070;16.998;2023-03-21T04:23:51;33.53;;;16.02;;
2906;SDS011;1463;51.070;16.998;2023-03-21T04:26:20;39.90;;;17.45;;
2906;SDS011;1463;51.070;16.998;2023-03-21T04:28:49;33.28;;;16.15;;
2906;SDS011;1463;51.070;16.998;2023-03-21T04:31:17;40.85;;;19.30;;
2906;SDS011;1463;51.070;16.998;2023-03-21T04:33:44;34.45;;;14.18;;
2906;SDS011;1463;51.070;16.998;2023-03-21T04:36:12;24.83;;;13.13;;
2906;SDS011;1463;51.070;16.998;2023-03-21T04:38:49;29.48;;;12.80;;
2906;SDS011;1463;51.070;16.998;2023-03-21T04:41:17;27.48;;;12.20;;
2906;SDS011;1463;51.070;16.998;2023-03-21T04:43:44;38.13;;;20.98;;
2906;SDS011;1463;51.070;16.998;2023-03-21T04:46:14;34.42;;;13.88;;
2906;SDS011;1463;51.070;16.998;2023-03-21T04:48:41;25.80;;;13.00;;
2906;SDS011;1463;51.070;16.998;2023-03-21T04:51:08;30.10;;;16.77;;
2906;SDS011;1463;51.070;16.998;2023-03-21T04:53:36;26.35;;;13.85;;
2906;SDS011;1463;51.070;16.998;2023-03-21T04:56:04;33.25;;;15.13;;
2906;SDS011;1463;51.070;16.998;2023-03-21T04:58:31;30.45;;;14.13;;
2906;SDS011;1463;51.070;16.998;2023-03-21T05:00:59;35.08;;;18.05;;
2906;SDS011;1463;51.070;16.998;2023-03-21T05:03:28;38.08;;;18.60;;
2906;SDS011;1463;51.070;16.998;2023-03-21T05:05:58;31.67;;;16.70;;
2906;SDS011;1463;51.070;16.998;2023-03-21T05:08:27;29.50;;;16.25;;
2906;SDS011;1463;51.070;16.998;2023-03-21T05:10:56;34.83;;;16.38;;
2906;SDS011;1463;51.070;16.998;2023-03-21T05:13:24;27.27;;;14.80;;
2906;SDS011;1463;51.070;16.998;2023-03-21T05:15:51;26.70;;;15.02;;
2906;SDS011;1463;51.070;16.998;2023-03-21T05:18:18;26.08;;;12.32;;
2906;SDS011;1463;51.070;16.998;2023-03-21T05:20:51;30.60;;;16.88;;
2906;SDS011;1463;51.070;16.998;2023-03-21T05:23:19;28.25;;;16.35;;
2906;SDS011;1463;51.070;16.998;2023-03-21T05:25:47;30.88;;;19.63;;
2906;SDS011;1463;51.070;16.998;2023-03-21T05:28:15;33.70;;;14.57;;
2906;SDS011;1463;51.070;16.998;2023-03-21T05:30:43;25.92;;;13.45;;
2906;SDS011;1463;51.070;16.998;2023-03-21T05:33:11;25.95;;;13.75;;
2906;SDS011;1463;51.070;16.998;2023-03-21T05:35:39;25.10;;;12.43;;
2906;SDS011;1463;51.070;16.998;2023-03-21T05:38:08;31.33;;;13.55;;
2906;SDS011;1463;51.070;16.998;2023-03-21T05:40:35;30.67;;;14.85;;
2906;SDS011;1463;51.070;16.998;2023-03-21T05:43:02;27.58;;;13.02;;
2906;SDS011;1463;51.070;16.998;2023-03-21T05:45:30;32.20;;;14.02;;
2906;SDS011;1463;51.070;16.998;2023-03-21T05:47:57;31.23;;;14.55;;
2906;SDS011;1463;51.070;16.998;2023-03-21T05:50:24;22.58;;;12.93;;
2906;SDS011;1463;51.070;16.998;2023-03-21T05:52:52;27.58;;;15.43;;
2906;SDS011;1463;51.070;16.998;2023-03-21T05:55:21;25.98;;;13.25;;
2906;SDS011;1463;51.070;16.998;2023-03-21T05:57:48;29.02;;;11.70;;
2906;SDS011;1463;51.070;16.998;2023-03-21T06:00:16;22.58;;;13.68;;
2906;SDS011;1463;51.070;16.998;2023-03-21T06:02:46;25.80;;;12.65;;
2906;SDS011;1463;51.070;16.998;2023-03-21T06:05:13;29.35;;;14.98;;
2906;SDS011;1463;51.070;16.998;2023-03-21T06:07:41;32.35;;;15.05;;
2906;SDS011;1463;51.070;16.998;2023-03-21T06:10:09;26.45;;;13.75;;
2906;SDS011;1463;51.070;16.998;2023-03-21T06:12:38;31.48;;;14.50;;
2906;SDS011;1463;51.070;16.998;2023-03-21T06:15:07;22.60;;;12.82;;
2906;SDS011;1463;51.070;16.998;2023-03-21T06:17:36;27.13;;;13.35;;
2906;SDS011;1463;51.070;16.998;2023-03-21T06:20:03;31.00;;;13.50;;
2906;SDS011;1463;51.070;16.998;2023-03-21T06:22:32;36.47;;;14.65;;
2906;SDS011;1463;51.070;16.998;2023-03-21T06:25:03;36.28;;;16.25;;
2906;SDS011;1463;51.070;16.998;2023-03-21T06:27:34;26.30;;;15.50;;
2906;SDS011;1463;51.070;16.998;2023-03-21T06:30:04;29.42;;;13.63;;
2906;SDS011;1463;51.070;16.998;2023-03-21T06:32:32;27.25;;;14.70;;
2906;SDS011;1463;51.070;16.998;2023-03-21T06:35:00;28.55;;;14.52;;
2906;SDS011;1463;51.070;16.998;2023-03-21T06:37:27;24.13;;;14.70;;
2906;SDS011;1463;51.070;16.998;2023-03-21T06:39:55;26.50;;;13.40;;
2906;SDS011;1463;51.070;16.998;2023-03-21T06:42:22;33.35;;;15.85;;
2906;SDS011;1463;51.070;16.998;2023-03-21T06:44:52;23.70;;;14.05;;
2906;SDS011;1463;51.070;16.998;2023-03-21T06:47:21;27.08;;;15.80;;
2906;SDS011;1463;51.070;16.998;2023-03-21T06:49:49;24.42;;;12.98;;
2906;SDS011;1463;51.070;16.998;2023-03-21T06:52:16;26.80;;;14.32;;
2906;SDS011;1463;51.070;16.998;2023-03-21T06:54:44;31.20;;;17.08;;
2906;SDS011;1463;51.070;16.998;2023-03-21T06:57:11;24.38;;;13.00;;
2906;SDS011;1463;51.070;16.998;2023-03-21T06:59:38;23.42;;;10.57;;
2906;SDS011;1463;51.070;16.998;2023-03-21T07:02:08;33.05;;;17.05;;
2906;SDS011;1463;51.070;16.998;2023-03-21T07:04:42;23.52;;;12.30;;
2906;SDS011;1463;51.070;16.998;2023-03-21T07:07:09;23.70;;;12.45;;
2906;SDS011;1463;51.070;16.998;2023-03-21T07:09:37;25.55;;;12.07;;
2906;SDS011;1463;51.070;16.998;2023-03-21T07:12:05;20.80;;;11.80;;
2906;SDS011;1463;51.070;16.998;2023-03-21T07:14:33;25.30;;;14.07;;
2906;SDS011;1463;51.070;16.998;2023-03-21T07:17:01;22.05;;;13.27;;
2906;SDS011;1463;51.070;16.998;2023-03-21T07:19:29;23.48;;;11.98;;
2906;SDS011;1463;51.070;16.998;2023-03-21T07:21:58;29.05;;;12.35;;
2906;SDS011;1463;51.070;16.998;2023-03-21T07:24:26;20.10;;;11.07;;
2906;SDS011;1463;51.070;16.998;2023-03-21T07:26:56;25.00;;;12.43;;
2906;SDS011;1463;51.070;16.998;2023-03-21T07:29:25;25.50;;;12.10;;
2906;SDS011;1463;51.070;16.998;2023-03-21T07:31:52;24.50;;;12.77;;
2906;SDS011;1463;51.070;16.998;2023-03-21T07:34:19;27.38;;;13.18;;
2906;SDS011;1463;51.070;16.998;2023-03-21T07:36:47;23.27;;;13.02;;
2906;SDS011;1463;51.070;16.998;2023-03-21T07:39:16;26.67;;;12.07;;
2906;SDS011;1463;51.070;16.998;2023-03-21T07:41:44;26.90;;;13.50;;
2906;SDS011;1463;51.070;16.998;2023-03-21T07:44:12;22.08;;;11.90;;
2906;SDS011;1463;51.070;16.998;2023-03-21T07:46:39;23.88;;;11.25;;
2906;SDS011;1463;51.070;16.998;2023-03-21T07:49:07;23.40;;;12.00;;
2906;SDS011;1463;51.070;16.998;2023-03-21T07:51:34;23.27;;;12.07;;
2906;SDS011;1463;51.070;16.998;2023-03-21T07:54:02;24.80;;;13.05;;
2906;SDS011;1463;51.070;16.998;2023-03-21T07:56:32;24.27;;;10.88;;
2906;SDS011;1463;51.070;16.998;2023-03-21T07:58:59;20.75;;;11.40;;
2906;SDS011;1463;51.070;16.998;2023-03-21T08:01:27;24.83;;;10.85;;
2906;SDS011;1463;51.070;16.998;2023-03-21T08:03:54;22.50;;;10.82;;
2906;SDS011;1463;51.070;16.998;2023-03-21T08:06:22;20.10;;;9.57;;
2906;SDS011;1463;51.070;16.998;2023-03-21T08:08:56;21.45;;;11.52;;
2906;SDS011;1463;51.070;16.998;2023-03-21T08:11:24;18.70;;;9.77;;
2906;SDS011;1463;51.070;16.998;2023-03-21T08:13:53;22.00;;;10.38;;
2906;SDS011;1463;51.070;16.998;2023-03-21T08:16:20;24.55;;;12.00;;
2906;SDS011;1463;51.070;16.998;2023-03-21T08:18:48;20.13;;;10.55;;
2906;SDS011;1463;51.070;16.998;2023-03-21T08:21:16;24.05;;;11.63;;
2906;SDS011;1463;51.070;16.998;2023-03-21T08:23:43;19.08;;;11.13;;
2906;SDS011;1463;51.070;16.998;2023-03-21T08:26:11;28.33;;;12.68;;
2906;SDS011;1463;51.070;16.998;2023-03-21T08:28:40;18.55;;;10.02;;
2906;SDS011;1463;51.070;16.998;2023-03-21T08:31:09;20.40;;;10.75;;
2906;SDS011;1463;51.070;16.998;2023-03-21T08:33:38;23.90;;;11.82;;
2906;SDS011;1463;51.070;16.998;2023-03-21T08:36:06;18.67;;;11.00;;
2906;SDS011;1463;51.070;16.998;2023-03-21T08:38:34;24.58;;;10.65;;
2906;SDS011;1463;51.070;16.998;2023-03-21T08:41:02;20.65;;;10.30;;
2906;SDS011;1463;51.070;16.998;2023-03-21T08:43:29;18.02;;;11.02;;
2906;SDS011;1463;51.070;16.998;2023-03-21T08:45:57;16.98;;;10.10;;
2906;SDS011;1463;51.070;16.998;2023-03-21T08:48:26;21.67;;;11.18;;
2906;SDS011;1463;51.070;16.998;2023-03-21T08:50:53;18.20;;;9.60;;
2906;SDS011;1463;51.070;16.998;2023-03-21T08:53:20;17.67;;;9.68;;
2906;SDS011;1463;51.070;16.998;2023-03-21T08:55:48;21.23;;;10.38;;
2906;SDS011;1463;51.070;16.998;2023-03-21T08:58:16;17.92;;;10.07;;
2906;SDS011;1463;51.070;16.998;2023-03-21T09:00:43;17.58;;;10.10;;
2906;SDS011;1463;51.070;16.998;2023-03-21T09:03:11;24.98;;;11.80;;
2906;SDS011;1463;51.070;16.998;2023-03-21T09:05:39;19.63;;;10.77;;
2906;SDS011;1463;51.070;16.998;2023-03-21T09:08:10;22.52;;;11.85;;
2906;SDS011;1463;51.070;16.998;2023-03-21T09:10:38;20.33;;;12.55;;
2906;SDS011;1463;51.070;16.998;2023-03-21T09:13:05;25.63;;;11.18;;
2906;SDS011;1463;51.070;16.998;2023-03-21T09:15:33;24.00;;;12.35;;
2906;SDS011;1463;51.070;16.998;2023-03-21T09:18:04;20.40;;;11.60;;
2906;SDS011;1463;51.070;16.998;2023-03-21T09:20:45;23.27;;;12.07;;
2906;SDS011;1463;51.070;16.998;2023-03-21T09:23:14;23.80;;;13.50;;
2906;SDS011;1463;51.070;16.998;2023-03-21T09:25:43;23.20;;;12.70;;
2906;SDS011;1463;51.070;16.998;2023-03-21T09:28:11;24.13;;;11.65;;
2906;SDS011;1463;51.070;16.998;2023-03-21T09:30:39;24.80;;;11.68;;
2906;SDS011;1463;51.070;16.998;2023-03-21T09:33:08;21.60;;;13.63;;
2906;SDS011;1463;51.070;16.998;2023-03-21T09:35:37;23.95;;;11.73;;
2906;SDS011;1463;51.070;16.998;2023-03-21T09:38:06;32.25;;;12.82;;
2906;SDS011;1463;51.070;16.998;2023-03-21T09:40:38;20.70;;;11.80;;
2906;SDS011;1463;51.070;16.998;2023-03-21T09:43:20;23.85;;;12.35;;
2906;SDS011;1463;51.070;16.998;2023-03-21T09:46:00;19.52;;;12.55;;
2906;SDS011;1463;51.070;16.998;2023-03-21T09:48:34;22.00;;;11.27;;
2906;SDS011;1463;51.070;16.998;2023-03-21T09:51:07;21.83;;;13.05;;
2906;SDS011;1463;51.070;16.998;2023-03-21T09:53:41;22.20;;;12.80;;
2906;SDS011;1463;51.070;16.998;2023-03-21T09:56:13;24.25;;;11.18;;
2906;SDS011;1463;51.070;16.998;2023-03-21T09:58:42;21.65;;;11.15;;
2906;SDS011;1463;51.070;16.998;2023-03-21T10:01:16;21.42;;;12.48;;
2906;SDS011;1463;51.070;16.998;2023-03-21T10:03:54;21.63;;;12.80;;
2906;SDS011;1463;51.070;16.998;2023-03-21T10:06:24;24.23;;;13.18;;
2906;SDS011;1463;51.070;16.998;2023-03-21T10:08:56;21.50;;;12.15;;
2906;SDS011;1463;51.070;16.998;2023-03-21T10:11:27;27.45;;;12.77;;
2906;SDS011;1463;51.070;16.998;2023-03-21T10:13:58;21.50;;;11.80;;
2906;SDS011;1463;51.070;16.998;2023-03-21T10:16:30;25.00;;;11.43;;
2906;SDS011;1463;51.070;16.998;2023-03-21T10:19:02;19.63;;;11.13;;
2906;SDS011;1463;51.070;16.998;2023-03-21T10:21:34;23.35;;;12.25;;
2906;SDS011;1463;51.070;16.998;2023-03-21T10:24:12;32.80;;;14.10;;
2906;SDS011;1463;51.070;16.998;2023-03-21T10:26:42;23.58;;;12.52;;
2906;SDS011;1463;51.070;16.998;2023-03-21T10:29:11;24.20;;;13.05;;
2906;SDS011;1463;51.070;16.998;2023-03-21T10:31:41;22.13;;;12.00;;
2906;SDS011;1463;51.070;16.998;2023-03-21T10:34:12;24.95;;;12.52;;
2906;SDS011;1463;51.070;16.998;2023-03-21T10:36:44;25.55;;;14.23;;
2906;SDS011;1463;51.070;16.998;2023-03-21T10:39:17;26.35;;;14.85;;
2906;SDS011;1463;51.070;16.998;2023-03-21T10:41:50;21.35;;;13.48;;
2906;SDS011;1463;51.070;16.998;2023-03-21T10:44:18;27.13;;;14.13;;
2906;SDS011;1463;51.070;16.998;2023-03-21T10:46:50;25.42;;;13.25;;
2906;SDS011;1463;51.070;16.998;2023-03-21T10:49:19;22.20;;;12.98;;
2906;SDS011;1463;51.070;16.998;2023-03-21T10:51:48;22.25;;;12.63;;
2906;SDS011;1463;51.070;16.998;2023-03-21T10:54:19;24.25;;;13.50;;
2906;SDS011;1463;51.070;16.998;2023-03-21T10:56:54;21.25;;;11.75;;
2906;SDS011;1463;51.070;16.998;2023-03-21T10:59:23;20.75;;;11.88;;
2906;SDS011;1463;51.070;16.998;2023-03-21T11:01:55;20.52;;;13.25;;
2906;SDS011;1463;51.070;16.998;2023-03-21T11:04:24;23.35;;;13.38;;
2906;SDS011;1463;51.070;16.998;2023-03-21T11:06:53;27.00;;;14.13;;
2906;SDS011;1463;51.070;16.998;2023-03-21T11:09:26;31.48;;;13.85;;
2906;SDS011;1463;51.070;16.998;2023-03-21T11:12:10;23.38;;;13.52;;
2906;SDS011;1463;51.070;16.998;2023-03-21T11:14:39;30.77;;;14.65;;
2906;SDS011;1463;51.070;16.998;2023-03-21T11:17:21;21.77;;;13.32;;
2906;SDS011;1463;51.070;16.998;2023-03-21T11:19:56;24.55;;;14.60;;
2906;SDS011;1463;51.070;16.998;2023-03-21T11:22:25;24.80;;;14.45;;
2906;SDS011;1463;51.070;16.998;2023-03-21T11:24:58;35.22;;;15.82;;
2906;SDS011;1463;51.070;16.998;2023-03-21T11:27:27;35.50;;;17.33;;
2906;SDS011;1463;51.070;16.998;2023-03-21T11:29:57;30.88;;;16.90;;
2906;SDS011;1463;51.070;16.998;2023-03-21T11:32:29;27.00;;;16.17;;
2906;SDS011;1463;51.070;16.998;2023-03-21T11:34:59;25.73;;;14.55;;
2906;SDS011;1463;51.070;16.998;2023-03-21T11:37:30;32.33;;;17.67;;
2906;SDS011;1463;51.070;16.998;2023-03-21T11:40:06;27.95;;;15.43;;
2906;SDS011;1463;51.070;16.998;2023-03-21T11:42:46;33.72;;;16.02;;
2906;SDS011;1463;51.070;16.998;2023-03-21T11:45:17;31.52;;;15.77;;
2906;SDS011;1463;51.070;16.998;2023-03-21T11:47:46;29.42;;;17.27;;
2906;SDS011;1463;51.070;16.998;2023-03-21T11:50:19;33.95;;;16.98;;
2906;SDS011;1463;51.070;16.998;2023-03-21T11:53:02;30.00;;;15.93;;
2906;SDS011;1463;51.070;16.998;2023-03-21T11:55:44;29.25;;;15.45;;
2906;SDS011;1463;51.070;16.998;2023-03-21T11:58:26;26.98;;;15.05;;
2906;SDS011;1463;51.070;16.998;2023-03-21T12:01:04;26.23;;;15.73;;
2906;SDS011;1463;51.070;16.998;2023-03-21T12:03:51;28.35;;;16.98;;
2906;SDS011;1463;51.070;16.998;2023-03-21T12:06:28;29.80;;;15.48;;
2906;SDS011;1463;51.070;16.998;2023-03-21T12:09:13;26.58;;;15.30;;
2906;SDS011;1463;51.070;16.998;2023-03-21T12:11:53;34.22;;;17.67;;
2906;SDS011;1463;51.070;16.998;2023-03-21T12:14:34;32.40;;;15.73;;
2906;SDS011;1463;51.070;16.998;2023-03-21T12:17:13;29.52;;;16.67;;
2906;SDS011;1463;51.070;16.998;2023-03-21T12:19:51;34.85;;;16.00;;
2906;SDS011;1463;51.070;16.998;2023-03-21T12:22:57;29.13;;;17.52;;
2906;SDS011;1463;51.070;16.998;2023-03-21T12:25:34;28.58;;;15.32;;
2906;SDS011;1463;51.070;16.998;2023-03-21T12:28:09;23.00;;;14.73;;
2906;SDS011;1463;51.070;16.998;2023-03-21T12:30:52;30.95;;;14.77;;
2906;SDS011;1463;51.070;16.998;2023-03-21T12:33:37;32.17;;;17.08;;
2906;SDS011;1463;51.070;16.998;2023-03-21T12:36:16;25.65;;;15.90;;
2906;SDS011;1463;51.070;16.998;2023-03-21T12:38:55;31.23;;;15.93;;
2906;SDS011;1463;51.070;16.998;2023-03-21T12:41:32;30.13;;;15.20;;
2906;SDS011;1463;51.070;16.998;2023-03-21T12:44:07;32.22;;;16.05;;
2906;SDS011;1463;51.070;16.998;2023-03-21T12:46:38;31.35;;;15.57;;
2906;SDS011;1463;51.070;16.998;2023-03-21T12:49:12;25.48;;;14.13;;
2906;SDS011;1463;51.070;16.998;2023-03-21T12:51:45;23.85;;;13.55;;
2906;SDS011;1463;51.070;16.998;2023-03-21T12:54:20;24.73;;;13.73;;
2906;SDS011;1463;51.070;16.998;2023-03-21T12:56:56;21.42;;;12.77;;
2906;SDS011;1463;51.070;16.998;2023-03-21T12:59:32;26.75;;;14.52;;
2906;SDS011;1463;51.070;16.998;2023-03-21T13:02:09;25.85;;;14.20;;
2906;SDS011;1463;51.070;16.998;2023-03-21T13:04:45;24.35;;;12.50;;
2906;SDS011;1463;51.070;16.998;2023-03-21T13:07:19;24.17;;;14.38;;
2906;SDS011;1463;51.070;16.998;2023-03-21T13:09:49;24.75;;;14.30;;
2906;SDS011;1463;51.070;16.998;2023-03-21T13:12:25;26.60;;;14.27;;
2906;SDS011;1463;51.070;16.998;2023-03-21T13:15:21;22.98;;;13.65;;
2906;SDS011;1463;51.070;16.998;2023-03-21T13:18:14;26.33;;;13.90;;
2906;SDS011;1463;51.070;16.998;2023-03-21T13:20:49;22.08;;;12.57;;
2906;SDS011;1463;51.070;16.998;2023-03-21T13:23:20;26.98;;;13.50;;
2906;SDS011;1463;51.070;16.998;2023-03-21T13:25:49;30.92;;;15.20;;
2906;SDS011;1463;51.070;16.998;2023-03-21T13:28:19;24.70;;;12.95;;
2906;SDS011;1463;51.070;16.998;2023-03-21T13:30:50;23.05;;;12.40;;
2906;SDS011;1463;51.070;16.998;2023-03-21T13:33:20;22.80;;;12.75;;
2906;SDS011;1463;51.070;16.998;2023-03-21T13:35:54;22.05;;;12.82;;
2906;SDS011;1463;51.070;16.998;2023-03-21T13:38:29;27.52;;;14.13;;
2906;SDS011;1463;51.070;16.998;2023-03-21T13:41:04;26.88;;;13.10;;
2906;SDS011;1463;51.070;16.998;2023-03-21T13:43:39;20.38;;;11.00;;
2906;SDS011;1463;51.070;16.998;2023-03-21T13:46:12;20.83;;;13.40;;
2906;SDS011;1463;51.070;16.998;2023-03-21T13:48:42;23.17;;;12.65;;
2906;SDS011;1463;51.070;16.998;2023-03-21T13:51:36;19.80;;;12.95;;
2906;SDS011;1463;51.070;16.998;2023-03-21T13:54:16;28.17;;;14.32;;
2906;SDS011;1463;51.070;16.998;2023-03-21T13:56:49;23.15;;;11.30;;
2906;SDS011;1463;51.070;16.998;2023-03-21T13:59:18;18.75;;;11.10;;
2906;SDS011;1463;51.070;16.998;2023-03-21T14:02:14;28.88;;;11.52;;
2906;SDS011;1463;51.070;16.998;2023-03-21T14:04:54;19.05;;;11.18;;
2906;SDS011;1463;51.070;16.998;2023-03-21T14:07:27;25.38;;;11.75;;
2906;SDS011;1463;51.070;16.998;2023-03-21T14:09:57;15.25;;;9.98;;
2906;SDS011;1463;51.070;16.998;2023-03-21T14:12:28;19.88;;;11.30;;
2906;SDS011;1463;51.070;16.998;2023-03-21T14:15:00;25.05;;;13.20;;
2906;SDS011;1463;51.070;16.998;2023-03-21T14:17:34;27.52;;;12.30;;
2906;SDS011;1463;51.070;16.998;2023-03-21T14:20:04;20.25;;;10.93;;
2906;SDS011;1463;51.070;16.998;2023-03-21T14:22:37;26.10;;;13.52;;
2906;SDS011;1463;51.070;16.998;2023-03-21T14:25:06;22.83;;;11.80;;
2906;SDS011;1463;51.070;16.998;2023-03-21T14:27:38;21.85;;;11.93;;
2906;SDS011;1463;51.070;16.998;2023-03-21T14:30:10;22.45;;;13.25;;
2906;SDS011;1463;51.070;16.998;2023-03-21T14:32:47;21.63;;;13.38;;
2906;SDS011;1463;51.070;16.998;2023-03-21T14:35:14;19.35;;;11.73;;
2906;SDS011;1463;51.070;16.998;2023-03-21T14:37:43;27.25;;;12.20;;
2906;SDS011;1463;51.070;16.998;2023-03-21T14:40:17;18.30;;;11.20;;
2906;SDS011;1463;51.070;16.998;2023-03-21T14:42:47;20.10;;;11.15;;
2906;SDS011;1463;51.070;16.998;2023-03-21T14:45:19;24.23;;;12.25;;
2906;SDS011;1463;51.070;16.998;2023-03-21T14:47:59;28.80;;;13.98;;
2906;SDS011;1463;51.070;16.998;2023-03-21T14:50:34;18.80;;;10.85;;
2906;SDS011;1463;51.070;16.998;2023-03-21T14:53:06;26.75;;;13.10;;
2906;SDS011;1463;51.070;16.998;2023-03-21T14:55:40;19.63;;;11.60;;
2906;SDS011;1463;51.070;16.998;2023-03-21T14:58:10;24.98;;;13.60;;
2906;SDS011;1463;51.070;16.998;2023-03-21T15:00:39;17.40;;;10.90;;
2906;SDS011;1463;51.070;16.998;2023-03-21T15:03:09;20.95;;;12.68;;
2906;SDS011;1463;51.070;16.998;2023-03-21T15:05:40;20.30;;;10.82;;